sensor_id;sensor_type;location;lat;lon;timestamp;pressure;altitude;pressure_sealevel;temperature;humidity
41688;BME280;27371;42.686;23.362;2023-01-05T00:01:28;163999.44;;;6.91;84.04
41688;BME280;27371;42.686;23.362;2023-01-05T00:03:55;163974.13;;;6.82;84.33
41688;BME280;27371;42.686;23.362;2023-01-05T00:06:20;163988.78;;;6.87;84.20
41688;BME280;27371;42.686;23.362;2023-01-05T00:08:46;164004.78;;;6.94;84.43
41688;BME280;27371;42.686;23.362;2023-01-05T00:11:19;164010.13;;;6.96;84.41
41688;BME280;27371;42.686;23.362;2023-01-05T00:14:03;164000.81;;;6.92;84.20
41688;BME280;27371;42.686;23.362;2023-01-05T00:16:47;164006.09;;;6.94;84.27
41688;BME280;27371;42.686;23.362;2023-01-05T00:19:31;163943.47;;;6.70;84.40
41688;BME280;27371;42.686;23.362;2023-01-05T00:22:17;163991.44;;;6.88;84.63
41688;BME280;27371;42.686;23.362;2023-01-05T00:27:26;164006.09;;;6.94;84.54
41688;BME280;27371;42.686;23.362;2023-01-05T00:29:52;164007.44;;;6.95;84.42
41688;BME280;27371;42.686;23.362;2023-01-05T00:32:17;164008.81;;;6.95;84.26
41688;BME280;27371;42.686;23.362;2023-01-05T00:34:43;164007.44;;;6.95;84.17
41688;BME280;27371;42.686;23.362;2023-01-05T00:37:08;163990.13;;;6.88;84.07
41688;BME280;27371;42.686;23.362;2023-01-05T00:39:34;164008.81;;;6.95;84.01
41688;BME280;27371;42.686;23.362;2023-01-05T00:41:59;164015.47;;;6.98;83.84
41688;BME280;27371;42.686;23.362;2023-01-05T00:44:25;164046.13;;;7.09;83.89
41688;BME280;27371;42.686;23.362;2023-01-05T00:46:50;164048.78;;;7.10;83.42
41688;BME280;27371;42.686;23.362;2023-01-05T00:49:16;164024.78;;;7.01;83.51
41688;BME280;27371;42.686;23.362;2023-01-05T00:51:41;164058.13;;;7.14;83.19
41688;BME280;27371;42.686;23.362;2023-01-05T00:54:07;164082.13;;;7.23;83.01
41688;BME280;27371;42.686;23.362;2023-01-05T00:56:32;164087.47;;;7.25;82.90
41688;BME280;27371;42.686;23.362;2023-01-05T00:58:57;164095.47;;;7.28;82.70
41688;BME280;27371;42.686;23.362;2023-01-05T01:04:40;164088.81;;;7.26;82.61
41688;BME280;27371;42.686;23.362;2023-01-05T01:07:06;164099.44;;;7.30;82.00
41688;BME280;27371;42.686;23.362;2023-01-05T01:09:32;164103.47;;;7.31;82.17
41688;BME280;27371;42.686;23.362;2023-01-05T01:11:58;164122.09;;;7.39;81.81
41688;BME280;27371;42.686;23.362;2023-01-05T01:14:24;164124.81;;;7.40;81.81
41688;BME280;27371;42.686;23.362;2023-01-05T01:16:50;164103.47;;;7.31;81.72
41688;BME280;27371;42.686;23.362;2023-01-05T01:19:18;164099.44;;;7.30;81.69
41688;BME280;27371;42.686;23.362;2023-01-05T01:21:44;164100.75;;;7.30;81.80
41688;BME280;27371;42.686;23.362;2023-01-05T01:24:26;164104.78;;;7.32;81.52
41688;BME280;27371;42.686;23.362;2023-01-05T01:26:53;164096.78;;;7.29;81.62
41688;BME280;27371;42.686;23.362;2023-01-05T01:29:19;164098.13;;;7.29;81.63
41688;BME280;27371;42.686;23.362;2023-01-05T01:31:50;164100.75;;;7.30;81.74
41688;BME280;27371;42.686;23.362;2023-01-05T01:34:17;164103.47;;;7.31;81.72
41688;BME280;27371;42.686;23.362;2023-01-05T01:36:42;164103.47;;;7.31;81.61
41688;BME280;27371;42.686;23.362;2023-01-05T01:39:11;164098.13;;;7.29;81.59
41688;BME280;27371;42.686;23.362;2023-01-05T01:41:37;164095.47;;;7.28;81.60
41688;BME280;27371;42.686;23.362;2023-01-05T01:47:08;164092.78;;;7.27;81.70
41688;BME280;27371;42.686;23.362;2023-01-05T01:49:38;164102.16;;;7.31;81.18
41688;BME280;27371;42.686;23.362;2023-01-05T01:52:04;164104.78;;;7.32;81.35
41688;BME280;27371;42.686;23.362;2023-01-05T01:54:30;164107.44;;;7.33;81.14
41688;BME280;27371;42.686;23.362;2023-01-05T01:56:55;164112.78;;;7.35;81.26
41688;BME280;27371;42.686;23.362;2023-01-05T01:59:22;164128.78;;;7.41;81.04
41688;BME280;27371;42.686;23.362;2023-01-05T02:01:49;164132.81;;;7.43;80.89
41688;BME280;27371;42.686;23.362;2023-01-05T02:04:15;164124.81;;;7.40;80.95
41688;BME280;27371;42.686;23.362;2023-01-05T02:06:41;164102.16;;;7.31;80.84
41688;BME280;27371;42.686;23.362;2023-01-05T02:09:06;164123.47;;;7.39;80.66
41688;BME280;27371;42.686;23.362;2023-01-05T02:11:48;164116.81;;;7.36;80.76
41688;BME280;27371;42.686;23.362;2023-01-05T02:17:13;164071.44;;;7.19;81.07
41688;BME280;27371;42.686;23.362;2023-01-05T02:28:32;163979.47;;;6.84;82.11
41688;BME280;27371;42.686;23.362;2023-01-05T02:36:27;163900.81;;;6.54;83.90
41688;BME280;27371;42.686;23.362;2023-01-05T02:39:35;163896.78;;;6.52;84.32
41688;BME280;27371;42.686;23.362;2023-01-05T02:42:16;163888.81;;;6.49;84.56
41688;BME280;27371;42.686;23.362;2023-01-05T02:44:44;163899.44;;;6.53;84.92
41688;BME280;27371;42.686;23.362;2023-01-05T02:49:56;163942.09;;;6.69;84.72
41688;BME280;27371;42.686;23.362;2023-01-05T02:52:25;163946.13;;;6.71;84.57
41688;BME280;27371;42.686;23.362;2023-01-05T02:54:56;163960.78;;;6.77;84.35
41688;BME280;27371;42.686;23.362;2023-01-05T02:57:32;163982.13;;;6.85;84.18
41688;BME280;27371;42.686;23.362;2023-01-05T03:00:26;163971.44;;;6.81;84.01
41688;BME280;27371;42.686;23.362;2023-01-05T03:02:57;163979.47;;;6.84;84.06
41688;BME280;27371;42.686;23.362;2023-01-05T03:05:29;163990.13;;;6.88;83.72
41688;BME280;27371;42.686;23.362;2023-01-05T03:07:57;163991.44;;;6.88;83.91
41688;BME280;27371;42.686;23.362;2023-01-05T03:10:35;164002.13;;;6.93;83.53
41688;BME280;27371;42.686;23.362;2023-01-05T03:13:24;164024.78;;;7.01;83.27
41688;BME280;27371;42.686;23.362;2023-01-05T03:16:14;163999.44;;;6.91;83.07
41688;BME280;27371;42.686;23.362;2023-01-05T03:18:40;163995.47;;;6.90;83.16
41688;BME280;27371;42.686;23.362;2023-01-05T03:21:28;163995.47;;;6.90;83.21
41688;BME280;27371;42.686;23.362;2023-01-05T03:23:55;163998.09;;;6.91;83.04
41688;BME280;27371;42.686;23.362;2023-01-05T03:26:40;163999.44;;;6.91;83.09
41688;BME280;27371;42.686;23.362;2023-01-05T03:29:26;163975.44;;;6.82;83.12
41688;BME280;27371;42.686;23.362;2023-01-05T03:32:21;163967.47;;;6.79;83.42
41688;BME280;27371;42.686;23.362;2023-01-05T03:35:11;163946.13;;;6.71;83.50
41688;BME280;27371;42.686;23.362;2023-01-05T03:40:50;163939.47;;;6.68;84.26
41688;BME280;27371;42.686;23.362;2023-01-05T03:43:17;163930.13;;;6.65;84.15
41688;BME280;27371;42.686;23.362;2023-01-05T03:45:52;163920.78;;;6.61;84.44
41688;BME280;27371;42.686;23.362;2023-01-05T03:48:18;163923.47;;;6.62;84.69
41688;BME280;27371;42.686;23.362;2023-01-05T03:50:45;163936.81;;;6.67;84.37
41688;BME280;27371;42.686;23.362;2023-01-05T03:53:11;163935.44;;;6.67;84.60
41688;BME280;27371;42.686;23.362;2023-01-05T03:55:37;163968.78;;;6.80;84.37
41688;BME280;27371;42.686;23.362;2023-01-05T03:58:02;163972.81;;;6.81;84.03
41688;BME280;27371;42.686;23.362;2023-01-05T04:00:28;163966.13;;;6.79;84.05
41688;BME280;27371;42.686;23.362;2023-01-05T04:02:53;163959.47;;;6.76;83.86
41688;BME280;27371;42.686;23.362;2023-01-05T04:05:19;163998.09;;;6.91;83.87
41688;BME280;27371;42.686;23.362;2023-01-05T04:07:45;163990.13;;;6.88;83.62
41688;BME280;27371;42.686;23.362;2023-01-05T04:10:11;163975.44;;;6.82;83.59
41688;BME280;27371;42.686;23.362;2023-01-05T04:12:36;163942.09;;;6.69;83.85
41688;BME280;27371;42.686;23.362;2023-01-05T04:15:03;163920.78;;;6.61;84.45
41688;BME280;27371;42.686;23.362;2023-01-05T04:17:29;163888.81;;;6.49;84.61
41688;BME280;27371;42.686;23.362;2023-01-05T04:19:54;163895.47;;;6.52;84.71
41688;BME280;27371;42.686;23.362;2023-01-05T04:22:20;163871.50;;;6.42;85.07
41688;BME280;27371;42.686;23.362;2023-01-05T04:24:45;163847.47;;;6.33;85.82
41688;BME280;27371;42.686;23.362;2023-01-05T04:27:11;163844.81;;;6.32;86.02
41688;BME280;27371;42.686;23.362;2023-01-05T04:29:37;163820.81;;;6.23;86.14
41688;BME280;27371;42.686;23.362;2023-01-05T04:32:02;163816.84;;;6.21;86.24
41688;BME280;27371;42.686;23.362;2023-01-05T04:34:28;163806.16;;;6.17;86.46
41688;BME280;27371;42.686;23.362;2023-01-05T04:36:53;163796.84;;;6.14;86.59
41688;BME280;27371;42.686;23.362;2023-01-05T04:39:19;163804.81;;;6.17;86.72
41688;BME280;27371;42.686;23.362;2023-01-05T04:41:45;163803.50;;;6.16;86.89
41688;BME280;27371;42.686;23.362;2023-01-05T04:44:13;163806.16;;;6.17;86.71
41688;BME280;27371;42.686;23.362;2023-01-05T04:46:38;163830.16;;;6.27;86.54
41688;BME280;27371;42.686;23.362;2023-01-05T04:49:05;163854.13;;;6.36;86.83
41688;BME280;27371;42.686;23.362;2023-01-05T04:51:30;163850.16;;;6.34;86.55
41688;BME280;27371;42.686;23.362;2023-01-05T04:53:56;163880.81;;;6.46;86.35
41688;BME280;27371;42.686;23.362;2023-01-05T04:56:21;163879.50;;;6.45;86.09
41688;BME280;27371;42.686;23.362;2023-01-05T04:58:47;163843.50;;;6.32;85.37
41688;BME280;27371;42.686;23.362;2023-01-05T05:01:12;163742.19;;;5.93;85.67
41688;BME280;27371;42.686;23.362;2023-01-05T05:03:38;163815.50;;;6.21;86.47
41688;BME280;27371;42.686;23.362;2023-01-05T05:06:03;163766.19;;;6.02;85.61
41688;BME280;27371;42.686;23.362;2023-01-05T05:08:29;163719.47;;;5.84;86.17
41688;BME280;27371;42.686;23.362;2023-01-05T05:11:04;163738.16;;;5.91;87.86
41688;BME280;27371;42.686;23.362;2023-01-05T05:13:32;163879.50;;;6.45;91.93
41688;BME280;27371;42.686;23.362;2023-01-05T05:15:59;163931.47;;;6.65;90.37
41688;BME280;27371;42.686;23.362;2023-01-05T05:18:25;163948.78;;;6.72;88.68
41688;BME280;27371;42.686;23.362;2023-01-05T05:20:51;163955.44;;;6.75;87.70
41688;BME280;27371;42.686;23.362;2023-01-05T05:23:18;163952.78;;;6.74;86.49
41688;BME280;27371;42.686;23.362;2023-01-05T05:25:44;163954.13;;;6.74;86.00
41688;BME280;27371;42.686;23.362;2023-01-05T05:28:09;163950.09;;;6.73;84.85
41688;BME280;27371;42.686;23.362;2023-01-05T05:30:38;163964.81;;;6.78;84.84
41688;BME280;27371;42.686;23.362;2023-01-05T05:33:03;163971.44;;;6.81;84.62
41688;BME280;27371;42.686;23.362;2023-01-05T05:35:29;163978.09;;;6.83;84.81
41688;BME280;27371;42.686;23.362;2023-01-05T05:37:54;164016.78;;;6.98;84.45
41688;BME280;27371;42.686;23.362;2023-01-05T05:40:20;164014.09;;;6.97;84.06
41688;BME280;27371;42.686;23.362;2023-01-05T05:42:45;164003.44;;;6.93;83.65
41688;BME280;27371;42.686;23.362;2023-01-05T05:45:11;164022.13;;;7.00;83.78
41688;BME280;27371;42.686;23.362;2023-01-05T05:47:36;164024.78;;;7.01;83.56
41688;BME280;27371;42.686;23.362;2023-01-05T05:50:02;164004.78;;;6.94;83.19
41688;BME280;27371;42.686;23.362;2023-01-05T05:52:28;164006.09;;;6.94;83.58
41688;BME280;27371;42.686;23.362;2023-01-05T05:54:53;164002.13;;;6.93;83.37
41688;BME280;27371;42.686;23.362;2023-01-05T05:57:19;164000.81;;;6.92;83.23
41688;BME280;27371;42.686;23.362;2023-01-05T05:59:45;164000.81;;;6.92;82.78
41688;BME280;27371;42.686;23.362;2023-01-05T06:02:10;163967.47;;;6.79;82.47
41688;BME280;27371;42.686;23.362;2023-01-05T06:04:36;163970.09;;;6.80;83.14
41688;BME280;27371;42.686;23.362;2023-01-05T06:07:01;163971.44;;;6.81;83.14
41688;BME280;27371;42.686;23.362;2023-01-05T06:09:27;163955.44;;;6.75;83.13
41688;BME280;27371;42.686;23.362;2023-01-05T06:11:52;163956.75;;;6.75;83.01
41688;BME280;27371;42.686;23.362;2023-01-05T06:14:18;163919.44;;;6.61;83.31
41688;BME280;27371;42.686;23.362;2023-01-05T06:16:44;163946.13;;;6.71;83.45
41688;BME280;27371;42.686;23.362;2023-01-05T06:19:10;163940.78;;;6.69;83.27
41688;BME280;27371;42.686;23.362;2023-01-05T06:21:36;163932.78;;;6.66;83.34
41688;BME280;27371;42.686;23.362;2023-01-05T06:24:01;163928.81;;;6.64;83.61
41688;BME280;27371;42.686;23.362;2023-01-05T06:26:27;163930.13;;;6.65;83.42
41688;BME280;27371;42.686;23.362;2023-01-05T06:28:52;163896.78;;;6.52;83.45
41688;BME280;27371;42.686;23.362;2023-01-05T06:31:17;163936.81;;;6.67;83.49
41688;BME280;27371;42.686;23.362;2023-01-05T06:33:43;163940.78;;;6.69;83.55
41688;BME280;27371;42.686;23.362;2023-01-05T06:36:09;163910.13;;;6.57;83.50
41688;BME280;27371;42.686;23.362;2023-01-05T06:41:18;163890.13;;;6.50;82.48
41688;BME280;27371;42.686;23.362;2023-01-05T06:43:44;163855.47;;;6.36;82.49
41688;BME280;27371;42.686;23.362;2023-01-05T06:46:09;163830.16;;;6.27;84.08
41688;BME280;27371;42.686;23.362;2023-01-05T06:48:35;163811.50;;;6.19;84.32
41688;BME280;27371;42.686;23.362;2023-01-05T06:51:00;163763.56;;;6.01;84.66
41688;BME280;27371;42.686;23.362;2023-01-05T06:53:26;163767.53;;;6.02;85.97
41688;BME280;27371;42.686;23.362;2023-01-05T06:55:51;163800.84;;;6.15;86.81
41688;BME280;27371;42.686;23.362;2023-01-05T06:58:17;163839.47;;;6.30;86.93
41688;BME280;27371;42.686;23.362;2023-01-05T07:00:42;163855.47;;;6.36;86.54
41688;BME280;27371;42.686;23.362;2023-01-05T07:03:11;163875.47;;;6.44;86.06
41688;BME280;27371;42.686;23.362;2023-01-05T07:05:37;163883.47;;;6.47;85.80
41688;BME280;27371;42.686;23.362;2023-01-05T07:08:03;163896.78;;;6.52;85.83
41688;BME280;27371;42.686;23.362;2023-01-05T07:10:29;163904.78;;;6.55;85.78
41688;BME280;27371;42.686;23.362;2023-01-05T07:12:54;163914.09;;;6.59;85.13
41688;BME280;27371;42.686;23.362;2023-01-05T07:15:19;163930.13;;;6.65;85.28
41688;BME280;27371;42.686;23.362;2023-01-05T07:17:45;163930.13;;;6.65;85.15
41688;BME280;27371;42.686;23.362;2023-01-05T07:20:11;163955.44;;;6.75;85.28
41688;BME280;27371;42.686;23.362;2023-01-05T07:22:36;163947.44;;;6.72;84.46
41688;BME280;27371;42.686;23.362;2023-01-05T07:25:02;163999.44;;;6.91;84.57
41688;BME280;27371;42.686;23.362;2023-01-05T07:27:27;163987.47;;;6.87;84.24
41688;BME280;27371;42.686;23.362;2023-01-05T07:29:53;164007.44;;;6.95;83.64
41688;BME280;27371;42.686;23.362;2023-01-05T07:32:18;163995.47;;;6.90;83.82
41688;BME280;27371;42.686;23.362;2023-01-05T07:34:44;164007.44;;;6.95;83.96
41688;BME280;27371;42.686;23.362;2023-01-05T07:37:10;163988.78;;;6.87;83.66
41688;BME280;27371;42.686;23.362;2023-01-05T07:39:35;163963.44;;;6.78;83.95
41688;BME280;27371;42.686;23.362;2023-01-05T07:42:01;164000.81;;;6.92;83.79
41688;BME280;27371;42.686;23.362;2023-01-05T07:44:26;163991.44;;;6.88;83.97
41688;BME280;27371;42.686;23.362;2023-01-05T07:46:52;164038.13;;;7.06;84.38
41688;BME280;27371;42.686;23.362;2023-01-05T07:49:18;164110.13;;;7.34;83.69
41688;BME280;27371;42.686;23.362;2023-01-05T07:51:43;164171.47;;;7.57;82.95
41688;BME280;27371;42.686;23.362;2023-01-05T07:54:09;164211.50;;;7.73;81.66
41688;BME280;27371;42.686;23.362;2023-01-05T07:56:34;164224.84;;;7.78;80.96
41688;BME280;27371;42.686;23.362;2023-01-05T07:59:00;164263.53;;;7.93;80.39
41688;BME280;27371;42.686;23.362;2023-01-05T08:01:25;164319.56;;;8.14;78.90
41688;BME280;27371;42.686;23.362;2023-01-05T08:03:51;164348.91;;;8.25;78.27
41688;BME280;27371;42.686;23.362;2023-01-05T08:06:18;164386.31;;;8.40;77.45
41688;BME280;27371;42.686;23.362;2023-01-05T08:08:45;164439.75;;;8.60;76.42
41688;BME280;27371;42.686;23.362;2023-01-05T08:11:13;164497.13;;;8.82;75.45
41688;BME280;27371;42.686;23.362;2023-01-05T08:13:43;164521.16;;;8.91;73.91
41688;BME280;27371;42.686;23.362;2023-01-05T08:16:25;164563.88;;;9.08;73.29
41688;BME280;27371;42.686;23.362;2023-01-05T08:18:51;164615.94;;;9.28;72.86
41688;BME280;27371;42.686;23.362;2023-01-05T08:21:17;164674.69;;;9.50;71.77
41688;BME280;27371;42.686;23.362;2023-01-05T08:23:43;164716.09;;;9.66;70.39
41688;BME280;27371;42.686;23.362;2023-01-05T08:26:17;164694.72;;;9.58;70.19
41688;BME280;27371;42.686;23.362;2023-01-05T08:28:44;164706.75;;;9.63;70.52
41688;BME280;27371;42.686;23.362;2023-01-05T08:31:12;164721.44;;;9.68;70.05
41688;BME280;27371;42.686;23.362;2023-01-05T08:33:38;164721.44;;;9.68;70.05
41688;BME280;27371;42.686;23.362;2023-01-05T08:36:09;164732.13;;;9.72;69.73
41688;BME280;27371;42.686;23.362;2023-01-05T08:38:35;164688.03;;;9.55;69.60
41688;BME280;27371;42.686;23.362;2023-01-05T08:41:01;164673.34;;;9.50;69.54
41688;BME280;27371;42.686;23.362;2023-01-05T08:43:27;164645.31;;;9.39;69.83
41688;BME280;27371;42.686;23.362;2023-01-05T08:45:53;164593.25;;;9.19;70.54
41688;BME280;27371;42.686;23.362;2023-01-05T08:48:18;164615.94;;;9.28;71.03
41688;BME280;27371;42.686;23.362;2023-01-05T08:50:44;164611.97;;;9.26;71.22
41688;BME280;27371;42.686;23.362;2023-01-05T08:53:10;164623.94;;;9.31;71.28
41688;BME280;27371;42.686;23.362;2023-01-05T08:55:35;164627.97;;;9.32;70.92
41688;BME280;27371;42.686;23.362;2023-01-05T08:58:01;164634.66;;;9.35;70.78
41688;BME280;27371;42.686;23.362;2023-01-05T09:00:27;164668.00;;;9.48;70.64
41688;BME280;27371;42.686;23.362;2023-01-05T09:02:53;164686.72;;;9.55;70.18
41688;BME280;27371;42.686;23.362;2023-01-05T09:05:18;164696.06;;;9.58;69.71
41688;BME280;27371;42.686;23.362;2023-01-05T09:07:44;164650.66;;;9.41;69.73
41688;BME280;27371;42.686;23.362;2023-01-05T09:10:10;164669.38;;;9.48;69.68
41688;BME280;27371;42.686;23.362;2023-01-05T09:12:37;164697.38;;;9.59;69.65
41688;BME280;27371;42.686;23.362;2023-01-05T09:15:04;164726.75;;;9.70;69.05
41688;BME280;27371;42.686;23.362;2023-01-05T09:17:30;164740.13;;;9.75;68.91
41688;BME280;27371;42.686;23.362;2023-01-05T09:19:56;164782.88;;;9.92;68.21
41688;BME280;27371;42.686;23.362;2023-01-05T09:22:21;164772.22;;;9.88;68.21
41688;BME280;27371;42.686;23.362;2023-01-05T09:24:47;164804.25;;;10.00;68.24
41688;BME280;27371;42.686;23.362;2023-01-05T09:27:14;164780.22;;;9.91;67.96
41688;BME280;27371;42.686;23.362;2023-01-05T09:29:39;164780.22;;;9.91;67.66
41688;BME280;27371;42.686;23.362;2023-01-05T09:32:05;164758.84;;;9.82;68.11
41688;BME280;27371;42.686;23.362;2023-01-05T09:34:31;164793.56;;;9.96;68.07
41688;BME280;27371;42.686;23.362;2023-01-05T09:36:57;164844.34;;;10.15;66.86
41688;BME280;27371;42.686;23.362;2023-01-05T09:39:23;164885.81;;;10.31;66.58
41688;BME280;27371;42.686;23.362;2023-01-05T09:41:54;164885.81;;;10.31;66.28
41688;BME280;27371;42.686;23.362;2023-01-05T09:44:36;164869.69;;;10.25;65.87
41688;BME280;27371;42.686;23.362;2023-01-05T09:47:12;164851.03;;;10.18;65.94
41688;BME280;27371;42.686;23.362;2023-01-05T09:49:40;164829.66;;;10.10;65.87
41688;BME280;27371;42.686;23.362;2023-01-05T09:52:08;164821.63;;;10.07;66.36
41688;BME280;27371;42.686;23.362;2023-01-05T09:54:36;164845.66;;;10.16;65.92
41688;BME280;27371;42.686;23.362;2023-01-05T09:57:04;164872.41;;;10.26;65.69
41688;BME280;27371;42.686;23.362;2023-01-05T10:00:00;164897.81;;;10.36;65.10
41688;BME280;27371;42.686;23.362;2023-01-05T10:05:02;164927.22;;;10.47;64.25
41688;BME280;27371;42.686;23.362;2023-01-05T10:07:46;164939.25;;;10.52;63.82
41688;BME280;27371;42.686;23.362;2023-01-05T10:12:52;164992.69;;;10.72;62.99
41688;BME280;27371;42.686;23.362;2023-01-05T10:15:40;165012.75;;;10.80;62.68
41688;BME280;27371;42.686;23.362;2023-01-05T10:18:26;165003.41;;;10.76;62.60
41688;BME280;27371;42.686;23.362;2023-01-05T10:26:26;165024.78;;;10.84;62.79
41688;BME280;27371;42.686;23.362;2023-01-05T10:29:12;165004.72;;;10.77;62.84
41688;BME280;27371;42.686;23.362;2023-01-05T10:32:06;164971.28;;;10.64;63.05
41688;BME280;27371;42.686;23.362;2023-01-05T10:34:47;164953.94;;;10.57;62.89
41688;BME280;27371;42.686;23.362;2023-01-05T10:40:18;164988.69;;;10.70;62.92
41688;BME280;27371;42.686;23.362;2023-01-05T10:45:42;164991.34;;;10.72;62.42
41688;BME280;27371;42.686;23.362;2023-01-05T10:48:13;164995.38;;;10.73;63.12
41688;BME280;27371;42.686;23.362;2023-01-05T10:50:41;165014.06;;;10.80;62.77
41688;BME280;27371;42.686;23.362;2023-01-05T10:53:15;165023.47;;;10.84;62.19
41688;BME280;27371;42.686;23.362;2023-01-05T10:56:05;165034.13;;;10.88;62.28
41688;BME280;27371;42.686;23.362;2023-01-05T10:58:36;165035.47;;;10.88;62.52
41688;BME280;27371;42.686;23.362;2023-01-05T11:01:24;165007.38;;;10.78;62.48
41688;BME280;27371;42.686;23.362;2023-01-05T11:04:08;164969.97;;;10.63;63.15
41688;BME280;27371;42.686;23.362;2023-01-05T11:06:38;164974.00;;;10.65;63.48
41688;BME280;27371;42.686;23.362;2023-01-05T11:09:19;164976.66;;;10.66;63.14
41688;BME280;27371;42.686;23.362;2023-01-05T11:11:54;164975.34;;;10.65;63.07
41688;BME280;27371;42.686;23.362;2023-01-05T11:14:20;164986.00;;;10.69;63.03
41688;BME280;27371;42.686;23.362;2023-01-05T11:16:49;165007.38;;;10.78;62.72
41688;BME280;27371;42.686;23.362;2023-01-05T11:19:17;164991.34;;;10.72;62.57
41688;BME280;27371;42.686;23.362;2023-01-05T11:21:45;164998.03;;;10.74;62.59
41688;BME280;27371;42.686;23.362;2023-01-05T11:26:56;165019.44;;;10.82;62.23
41688;BME280;27371;42.686;23.362;2023-01-05T11:29:23;165039.47;;;10.90;61.80
41688;BME280;27371;42.686;23.362;2023-01-05T11:32:04;165058.16;;;10.97;61.92
41688;BME280;27371;42.686;23.362;2023-01-05T11:37:21;165060.88;;;10.98;61.63
41688;BME280;27371;42.686;23.362;2023-01-05T11:40:14;165071.53;;;11.02;61.47
41688;BME280;27371;42.686;23.362;2023-01-05T11:42:41;165066.22;;;11.00;61.29
41688;BME280;27371;42.686;23.362;2023-01-05T11:48:01;165092.94;;;11.10;61.68
41688;BME280;27371;42.686;23.362;2023-01-05T11:50:49;165123.72;;;11.22;61.04
41688;BME280;27371;42.686;23.362;2023-01-05T11:56:42;165146.44;;;11.31;60.31
41688;BME280;27371;42.686;23.362;2023-01-05T11:58:45;165141.06;;;11.29;59.97
41688;BME280;27371;42.686;23.362;2023-01-05T12:09:32;165306.94;;;11.92;58.38
41688;BME280;27371;42.686;23.362;2023-01-05T12:20:30;165388.50;;;12.23;56.85
41688;BME280;27371;42.686;23.362;2023-01-05T12:25:55;165432.63;;;12.40;55.13
41688;BME280;27371;42.686;23.362;2023-01-05T12:28:30;165434.03;;;12.41;54.47
41688;BME280;27371;42.686;23.362;2023-01-05T12:43:01;165464.78;;;12.53;52.98
41688;BME280;27371;42.686;23.362;2023-01-05T12:48:48;165447.34;;;12.46;52.18
41688;BME280;27371;42.686;23.362;2023-01-05T12:53:58;165440.72;;;12.43;52.35
41688;BME280;27371;42.686;23.362;2023-01-05T12:56:31;165442.03;;;12.44;52.48
41688;BME280;27371;42.686;23.362;2023-01-05T12:59:16;165440.72;;;12.43;52.80
41688;BME280;27371;42.686;23.362;2023-01-05T13:01:54;165408.56;;;12.31;53.71
41688;BME280;27371;42.686;23.362;2023-01-05T13:04:41;165377.81;;;12.19;54.25
41688;BME280;27371;42.686;23.362;2023-01-05T13:07:47;165360.41;;;12.13;54.64
41688;BME280;27371;42.686;23.362;2023-01-05T13:10:38;165318.97;;;11.97;55.22
41688;BME280;27371;42.686;23.362;2023-01-05T13:13:13;165355.09;;;12.11;55.51
41688;BME280;27371;42.686;23.362;2023-01-05T13:18:20;165360.41;;;12.13;55.92
41688;BME280;27371;42.686;23.362;2023-01-05T13:20:53;165349.72;;;12.09;55.84
41688;BME280;27371;42.686;23.362;2023-01-05T13:23:43;165344.38;;;12.07;56.11
41688;BME280;27371;42.686;23.362;2023-01-05T13:26:15;165333.69;;;12.02;56.02
41688;BME280;27371;42.686;23.362;2023-01-05T13:28:42;165318.97;;;11.97;55.88
41688;BME280;27371;42.686;23.362;2023-01-05T13:34:27;165332.38;;;12.02;58.01
41688;BME280;27371;42.686;23.362;2023-01-05T13:51:59;165318.97;;;11.97;56.17
41688;BME280;27371;42.686;23.362;2023-01-05T13:57:11;165304.28;;;11.91;56.31
41688;BME280;27371;42.686;23.362;2023-01-05T13:59:37;165302.91;;;11.91;56.21
41688;BME280;27371;42.686;23.362;2023-01-05T14:02:22;165298.91;;;11.89;56.03
41688;BME280;27371;42.686;23.362;2023-01-05T14:04:50;165294.88;;;11.88;56.34
41688;BME280;27371;42.686;23.362;2023-01-05T14:07:16;165276.13;;;11.80;56.48
41688;BME280;27371;42.686;23.362;2023-01-05T14:09:52;165284.16;;;11.84;56.25
41688;BME280;27371;42.686;23.362;2023-01-05T14:22:56;165203.94;;;11.53;56.64
41688;BME280;27371;42.686;23.362;2023-01-05T14:30:49;165173.13;;;11.41;56.96
41688;BME280;27371;42.686;23.362;2023-01-05T14:33:17;165161.13;;;11.36;57.24
41688;BME280;27371;42.686;23.362;2023-01-05T14:35:43;165146.44;;;11.31;57.45
41688;BME280;27371;42.686;23.362;2023-01-05T14:38:22;165153.13;;;11.33;57.41
41688;BME280;27371;42.686;23.362;2023-01-05T14:40:51;165135.72;;;11.27;57.62
41688;BME280;27371;42.686;23.362;2023-01-05T14:51:22;165030.16;;;10.86;59.76
41688;BME280;27371;42.686;23.362;2023-01-05T14:53:52;164939.25;;;10.52;60.35
41688;BME280;27371;42.686;23.362;2023-01-05T14:56:28;164864.41;;;10.23;60.98
41688;BME280;27371;42.686;23.362;2023-01-05T14:59:00;164798.94;;;9.98;61.94
41688;BME280;27371;42.686;23.362;2023-01-05T15:01:32;164802.91;;;9.99;62.37
41688;BME280;27371;42.686;23.362;2023-01-05T15:04:12;164814.97;;;10.04;62.21
41688;BME280;27371;42.686;23.362;2023-01-05T15:07:15;164841.63;;;10.14;61.67
41688;BME280;27371;42.686;23.362;2023-01-05T15:10:16;164855.00;;;10.19;61.53
41688;BME280;27371;42.686;23.362;2023-01-05T15:15:42;164855.00;;;10.19;61.37
41688;BME280;27371;42.686;23.362;2023-01-05T15:18:45;164855.00;;;10.19;61.55
41688;BME280;27371;42.686;23.362;2023-01-05T15:24:49;164826.94;;;10.09;61.57
41688;BME280;27371;42.686;23.362;2023-01-05T15:30:41;164822.97;;;10.07;61.81
41688;BME280;27371;42.686;23.362;2023-01-05T15:33:29;164810.94;;;10.02;61.72
41688;BME280;27371;42.686;23.362;2023-01-05T15:36:04;164780.22;;;9.91;61.86
41688;BME280;27371;42.686;23.362;2023-01-05T15:38:30;164809.59;;;10.02;61.90
41688;BME280;27371;42.686;23.362;2023-01-05T15:41:09;164806.94;;;10.01;62.00